sensor_id;sensor_type;location;lat;lon;timestamp;temperature;humidity
7014;DHT22;3547;50.774;12.918;2023-04-15T00:00:16;5.80;99.90
7014;DHT22;3547;50.774;12.918;2023-04-15T00:02:42;5.70;8.30
7014;DHT22;3547;50.774;12.918;2023-04-15T00:05:09;5.80;33.30
7014;DHT22;3547;50.774;12.918;2023-04-15T00:07:35;5.80;99.90
7014;DHT22;3547;50.774;12.918;2023-04-15T00:10:02;5.80;38.80
7014;DHT22;3547;50.774;12.918;2023-04-15T00:12:29;5.80;1.00
7014;DHT22;3547;50.774;12.918;2023-04-15T00:14:55;5.90;1.00
7014;DHT22;3547;50.774;12.918;2023-04-15T00:17:22;5.90;1.00
7014;DHT22;3547;50.774;12.918;2023-04-15T00:19:49;6.00;99.90
7014;DHT22;3547;50.774;12.918;2023-04-15T00:22:18;6.00;98.60
7014;DHT22;3547;50.774;12.918;2023-04-15T00:24:47;6.00;48.70
7014;DHT22;3547;50.774;12.918;2023-04-15T00:27:13;6.00;35.50
7014;DHT22;3547;50.774;12.918;2023-04-15T00:29:40;6.00;18.80
7014;DHT22;3547;50.774;12.918;2023-04-15T00:32:06;6.10;1.50
7014;DHT22;3547;50.774;12.918;2023-04-15T00:34:32;6.10;6.00
7014;DHT22;3547;50.774;12.918;2023-04-15T00:36:58;6.00;1.00
7014;DHT22;3547;50.774;12.918;2023-04-15T00:39:25;6.00;1.30
7014;DHT22;3547;50.774;12.918;2023-04-15T00:41:52;6.00;19.30
7014;DHT22;3547;50.774;12.918;2023-04-15T00:44:19;6.10;28.40
7014;DHT22;3547;50.774;12.918;2023-04-15T00:46:49;6.10;1.00
7014;DHT22;3547;50.774;12.918;2023-04-15T00:49:15;6.10;1.00
7014;DHT22;3547;50.774;12.918;2023-04-15T00:51:43;6.10;1.00
7014;DHT22;3547;50.774;12.918;2023-04-15T00:54:10;6.20;1.00
7014;DHT22;3547;50.774;12.918;2023-04-15T00:56:38;6.10;1.00
7014;DHT22;3547;50.774;12.918;2023-04-15T00:59:05;6.20;1.00
7014;DHT22;3547;50.774;12.918;2023-04-15T01:01:36;6.20;1.00
7014;DHT22;3547;50.774;12.918;2023-04-15T01:04:02;6.20;1.00
7014;DHT22;3547;50.774;12.918;2023-04-15T01:06:29;6.10;1.00
7014;DHT22;3547;50.774;12.918;2023-04-15T01:08:57;6.10;1.00
7014;DHT22;3547;50.774;12.918;2023-04-15T01:11:24;6.00;1.00
7014;DHT22;3547;50.774;12.918;2023-04-15T01:13:51;6.00;1.00
7014;DHT22;3547;50.774;12.918;2023-04-15T01:16:18;6.10;1.00
7014;DHT22;3547;50.774;12.918;2023-04-15T01:18:44;6.10;1.00
7014;DHT22;3547;50.774;12.918;2023-04-15T01:21:11;6.20;1.00
7014;DHT22;3547;50.774;12.918;2023-04-15T01:23:38;6.10;1.00
7014;DHT22;3547;50.774;12.918;2023-04-15T01:26:06;6.00;1.00
7014;DHT22;3547;50.774;12.918;2023-04-15T01:28:35;6.00;1.00
7014;DHT22;3547;50.774;12.918;2023-04-15T01:31:12;6.00;1.00
7014;DHT22;3547;50.774;12.918;2023-04-15T01:33:41;6.00;1.00
7014;DHT22;3547;50.774;12.918;2023-04-15T01:36:08;6.00;1.00
7014;DHT22;3547;50.774;12.918;2023-04-15T01:38:36;6.00;1.00
7014;DHT22;3547;50.774;12.918;2023-04-15T01:41:03;6.00;1.00
7014;DHT22;3547;50.774;12.918;2023-04-15T01:43:31;6.10;1.00
7014;DHT22;3547;50.774;12.918;2023-04-15T01:45:57;6.10;1.00
7014;DHT22;3547;50.774;12.918;2023-04-15T01:48:24;6.00;1.00
7014;DHT22;3547;50.774;12.918;2023-04-15T01:50:53;6.00;1.00
7014;DHT22;3547;50.774;12.918;2023-04-15T01:53:19;6.00;1.00
7014;DHT22;3547;50.774;12.918;2023-04-15T01:55:45;6.10;1.00
7014;DHT22;3547;50.774;12.918;2023-04-15T01:58:11;6.00;1.00
7014;DHT22;3547;50.774;12.918;2023-04-15T02:00:37;6.10;1.00
7014;DHT22;3547;50.774;12.918;2023-04-15T02:03:04;6.00;1.00
7014;DHT22;3547;50.774;12.918;2023-04-15T02:05:30;6.00;1.00
7014;DHT22;3547;50.774;12.918;2023-04-15T02:07:58;6.10;1.00
7014;DHT22;3547;50.774;12.918;2023-04-15T02:10:25;6.10;1.00
7014;DHT22;3547;50.774;12.918;2023-04-15T02:12:51;6.10;1.00
7014;DHT22;3547;50.774;12.918;2023-04-15T02:15:17;6.10;1.00
7014;DHT22;3547;50.774;12.918;2023-04-15T02:17:43;6.10;1.00
7014;DHT22;3547;50.774;12.918;2023-04-15T02:20:10;6.10;1.00
7014;DHT22;3547;50.774;12.918;2023-04-15T02:22:37;6.00;1.00
7014;DHT22;3547;50.774;12.918;2023-04-15T02:25:03;6.00;1.00
7014;DHT22;3547;50.774;12.918;2023-04-15T02:27:29;5.90;1.00
7014;DHT22;3547;50.774;12.918;2023-04-15T02:29:56;5.80;1.00
7014;DHT22;3547;50.774;12.918;2023-04-15T02:32:22;5.80;99.90
7014;DHT22;3547;50.774;12.918;2023-04-15T02:34:49;5.90;99.90
7014;DHT22;3547;50.774;12.918;2023-04-15T02:37:15;5.90;59.60
7014;DHT22;3547;50.774;12.918;2023-04-15T02:39:44;5.90;85.20
7014;DHT22;3547;50.774;12.918;2023-04-15T02:42:10;5.80;99.90
7014;DHT22;3547;50.774;12.918;2023-04-15T02:44:36;5.90;99.90
7014;DHT22;3547;50.774;12.918;2023-04-15T02:47:02;5.80;99.90
7014;DHT22;3547;50.774;12.918;2023-04-15T02:49:29;5.80;89.20
7014;DHT22;3547;50.774;12.918;2023-04-15T02:51:56;5.90;98.60
7014;DHT22;3547;50.774;12.918;2023-04-15T02:54:23;5.90;99.90
7014;DHT22;3547;50.774;12.918;2023-04-15T02:56:50;5.90;58.60
7014;DHT22;3547;50.774;12.918;2023-04-15T02:59:20;5.90;97.50
7014;DHT22;3547;50.774;12.918;2023-04-15T03:01:46;5.90;55.40
7014;DHT22;3547;50.774;12.918;2023-04-15T03:04:12;5.90;41.30
7014;DHT22;3547;50.774;12.918;2023-04-15T03:06:39;5.90;99.90
7014;DHT22;3547;50.774;12.918;2023-04-15T03:12:28;5.90;72.60
7014;DHT22;3547;50.774;12.918;2023-04-15T03:14:55;5.80;9.40
7014;DHT22;3547;50.774;12.918;2023-04-15T03:17:26;5.80;99.90
7014;DHT22;3547;50.774;12.918;2023-04-15T03:19:55;5.70;99.90
7014;DHT22;3547;50.774;12.918;2023-04-15T03:22:21;5.80;99.90
7014;DHT22;3547;50.774;12.918;2023-04-15T03:24:49;5.90;99.90
7014;DHT22;3547;50.774;12.918;2023-04-15T03:27:18;6.00;20.20
7014;DHT22;3547;50.774;12.918;2023-04-15T03:29:44;6.00;14.10
7014;DHT22;3547;50.774;12.918;2023-04-15T03:32:10;5.90;1.00
7014;DHT22;3547;50.774;12.918;2023-04-15T03:34:37;5.90;2.70
7014;DHT22;3547;50.774;12.918;2023-04-15T03:37:05;6.00;1.00
7014;DHT22;3547;50.774;12.918;2023-04-15T03:39:31;5.80;1.00
7014;DHT22;3547;50.774;12.918;2023-04-15T03:41:58;5.80;19.70
7014;DHT22;3547;50.774;12.918;2023-04-15T03:44:27;5.80;32.20
7014;DHT22;3547;50.774;12.918;2023-04-15T03:46:53;5.90;1.00
7014;DHT22;3547;50.774;12.918;2023-04-15T03:49:19;5.90;1.00
7014;DHT22;3547;50.774;12.918;2023-04-15T03:51:47;6.00;2.60
7014;DHT22;3547;50.774;12.918;2023-04-15T03:54:13;6.00;3.10
7014;DHT22;3547;50.774;12.918;2023-04-15T03:56:40;6.00;1.00
7014;DHT22;3547;50.774;12.918;2023-04-15T03:59:06;6.00;1.00
7014;DHT22;3547;50.774;12.918;2023-04-15T04:01:32;6.00;1.00
7014;DHT22;3547;50.774;12.918;2023-04-15T04:03:58;6.00;1.00
7014;DHT22;3547;50.774;12.918;2023-04-15T04:06:25;5.80;1.00
7014;DHT22;3547;50.774;12.918;2023-04-15T04:08:51;5.80;1.00
7014;DHT22;3547;50.774;12.918;2023-04-15T04:11:17;5.80;1.00
7014;DHT22;3547;50.774;12.918;2023-04-15T04:13:43;5.80;1.00
7014;DHT22;3547;50.774;12.918;2023-04-15T04:16:33;5.70;1.00
7014;DHT22;3547;50.774;12.918;2023-04-15T04:18:59;5.70;27.50
7014;DHT22;3547;50.774;12.918;2023-04-15T04:21:25;5.70;21.20
7014;DHT22;3547;50.774;12.918;2023-04-15T04:23:51;5.80;10.90
7014;DHT22;3547;50.774;12.918;2023-04-15T04:26:17;5.90;6.70
7014;DHT22;3547;50.774;12.918;2023-04-15T04:28:44;5.80;1.00
7014;DHT22;3547;50.774;12.918;2023-04-15T04:31:10;5.80;1.00
7014;DHT22;3547;50.774;12.918;2023-04-15T04:33:37;5.90;1.00
7014;DHT22;3547;50.774;12.918;2023-04-15T04:36:03;5.90;1.00
7014;DHT22;3547;50.774;12.918;2023-04-15T04:38:29;6.00;1.00
7014;DHT22;3547;50.774;12.918;2023-04-15T04:40:55;5.90;1.00
7014;DHT22;3547;50.774;12.918;2023-04-15T04:43:22;5.90;1.00
7014;DHT22;3547;50.774;12.918;2023-04-15T04:45:48;5.90;1.00
7014;DHT22;3547;50.774;12.918;2023-04-15T04:48:14;5.70;1.00
7014;DHT22;3547;50.774;12.918;2023-04-15T04:50:40;5.70;1.00
7014;DHT22;3547;50.774;12.918;2023-04-15T04:53:06;5.70;11.10
7014;DHT22;3547;50.774;12.918;2023-04-15T04:55:33;5.70;36.60
7014;DHT22;3547;50.774;12.918;2023-04-15T04:58:02;5.70;44.20
7014;DHT22;3547;50.774;12.918;2023-04-15T05:00:28;5.70;99.90
7014;DHT22;3547;50.774;12.918;2023-04-15T05:02:55;5.70;99.90
7014;DHT22;3547;50.774;12.918;2023-04-15T05:05:21;5.70;99.90
7014;DHT22;3547;50.774;12.918;2023-04-15T05:07:47;5.70;99.90
7014;DHT22;3547;50.774;12.918;2023-04-15T05:10:15;5.60;1.00
7014;DHT22;3547;50.774;12.918;2023-04-15T05:12:43;5.60;1.00
7014;DHT22;3547;50.774;12.918;2023-04-15T05:15:09;5.70;1.00
7014;DHT22;3547;50.774;12.918;2023-04-15T05:17:35;5.70;1.00
7014;DHT22;3547;50.774;12.918;2023-04-15T05:20:02;5.70;1.00
7014;DHT22;3547;50.774;12.918;2023-04-15T05:22:28;5.60;1.00
7014;DHT22;3547;50.774;12.918;2023-04-15T05:24:54;5.70;90.40
7014;DHT22;3547;50.774;12.918;2023-04-15T05:27:21;5.70;1.00
7014;DHT22;3547;50.774;12.918;2023-04-15T05:29:48;5.70;1.00
7014;DHT22;3547;50.774;12.918;2023-04-15T05:32:14;5.70;1.00
7014;DHT22;3547;50.774;12.918;2023-04-15T05:34:41;5.80;1.00
7014;DHT22;3547;50.774;12.918;2023-04-15T05:37:07;5.90;99.90
7014;DHT22;3547;50.774;12.918;2023-04-15T05:39:33;5.90;99.90
7014;DHT22;3547;50.774;12.918;2023-04-15T05:41:59;5.90;61.20
7014;DHT22;3547;50.774;12.918;2023-04-15T05:44:25;5.90;48.60
7014;DHT22;3547;50.774;12.918;2023-04-15T05:46:51;5.90;24.80
7014;DHT22;3547;50.774;12.918;2023-04-15T05:49:18;5.90;25.10
7014;DHT22;3547;50.774;12.918;2023-04-15T05:51:45;5.80;99.90
7014;DHT22;3547;50.774;12.918;2023-04-15T05:54:12;5.70;99.90
7014;DHT22;3547;50.774;12.918;2023-04-15T05:56:38;5.70;1.00
7014;DHT22;3547;50.774;12.918;2023-04-15T05:59:05;5.80;1.00
7014;DHT22;3547;50.774;12.918;2023-04-15T06:01:32;5.90;1.00
7014;DHT22;3547;50.774;12.918;2023-04-15T06:03:58;6.00;99.90
7014;DHT22;3547;50.774;12.918;2023-04-15T06:06:25;6.10;99.90
7014;DHT22;3547;50.774;12.918;2023-04-15T06:08:52;6.10;99.60
7014;DHT22;3547;50.774;12.918;2023-04-15T06:11:20;6.10;61.00
7014;DHT22;3547;50.774;12.918;2023-04-15T06:13:46;6.10;18.50
7014;DHT22;3547;50.774;12.918;2023-04-15T06:16:13;6.10;10.00
7014;DHT22;3547;50.774;12.918;2023-04-15T06:18:39;6.00;46.50
7014;DHT22;3547;50.774;12.918;2023-04-15T06:21:05;6.00;34.60
7014;DHT22;3547;50.774;12.918;2023-04-15T06:23:34;6.00;28.60
7014;DHT22;3547;50.774;12.918;2023-04-15T06:26:01;6.00;1.00
7014;DHT22;3547;50.774;12.918;2023-04-15T06:28:28;6.10;3.60
7014;DHT22;3547;50.774;12.918;2023-04-15T06:30:54;6.10;6.10
7014;DHT22;3547;50.774;12.918;2023-04-15T06:33:21;6.10;1.00
7014;DHT22;3547;50.774;12.918;2023-04-15T06:35:48;6.10;11.60
7014;DHT22;3547;50.774;12.918;2023-04-15T06:38:14;6.30;17.70
7014;DHT22;3547;50.774;12.918;2023-04-15T06:40:40;6.30;18.40
7014;DHT22;3547;50.774;12.918;2023-04-15T06:43:09;6.30;3.20
7014;DHT22;3547;50.774;12.918;2023-04-15T06:45:35;6.40;26.10
7014;DHT22;3547;50.774;12.918;2023-04-15T06:48:01;6.50;20.50
7014;DHT22;3547;50.774;12.918;2023-04-15T06:50:27;6.50;15.20
7014;DHT22;3547;50.774;12.918;2023-04-15T06:52:55;6.50;1.00
7014;DHT22;3547;50.774;12.918;2023-04-15T06:55:21;6.40;1.00
7014;DHT22;3547;50.774;12.918;2023-04-15T06:57:47;6.30;1.00
7014;DHT22;3547;50.774;12.918;2023-04-15T07:00:14;6.50;1.00
7014;DHT22;3547;50.774;12.918;2023-04-15T07:02:40;6.50;12.40
7014;DHT22;3547;50.774;12.918;2023-04-15T07:05:09;6.60;1.10
7014;DHT22;3547;50.774;12.918;2023-04-15T07:07:36;6.60;1.00
7014;DHT22;3547;50.774;12.918;2023-04-15T07:10:03;6.70;1.00
7014;DHT22;3547;50.774;12.918;2023-04-15T07:12:30;6.50;1.00
7014;DHT22;3547;50.774;12.918;2023-04-15T07:14:56;6.50;1.00
7014;DHT22;3547;50.774;12.918;2023-04-15T07:17:23;6.40;1.00
7014;DHT22;3547;50.774;12.918;2023-04-15T07:19:49;6.50;1.00
7014;DHT22;3547;50.774;12.918;2023-04-15T07:22:17;6.50;1.00
7014;DHT22;3547;50.774;12.918;2023-04-15T07:24:43;6.50;1.00
7014;DHT22;3547;50.774;12.918;2023-04-15T07:27:09;6.60;1.00
7014;DHT22;3547;50.774;12.918;2023-04-15T07:29:35;6.70;1.00
7014;DHT22;3547;50.774;12.918;2023-04-15T07:32:02;6.80;1.00
7014;DHT22;3547;50.774;12.918;2023-04-15T07:34:28;6.90;1.00
7014;DHT22;3547;50.774;12.918;2023-04-15T07:36:54;6.80;1.00
7014;DHT22;3547;50.774;12.918;2023-04-15T07:39:21;6.90;1.00
7014;DHT22;3547;50.774;12.918;2023-04-15T07:41:48;6.80;1.00
7014;DHT22;3547;50.774;12.918;2023-04-15T07:44:14;6.80;1.00
7014;DHT22;3547;50.774;12.918;2023-04-15T07:46:40;6.90;1.00
7014;DHT22;3547;50.774;12.918;2023-04-15T07:49:06;7.00;1.00
7014;DHT22;3547;50.774;12.918;2023-04-15T07:51:32;6.90;1.00
7014;DHT22;3547;50.774;12.918;2023-04-15T07:53:58;7.00;1.00
7014;DHT22;3547;50.774;12.918;2023-04-15T07:56:25;7.00;1.00
7014;DHT22;3547;50.774;12.918;2023-04-15T07:58:52;7.20;1.00
7014;DHT22;3547;50.774;12.918;2023-04-15T08:01:18;7.20;1.00
7014;DHT22;3547;50.774;12.918;2023-04-15T08:03:44;7.30;1.00
7014;DHT22;3547;50.774;12.918;2023-04-15T08:06:11;7.30;99.90
7014;DHT22;3547;50.774;12.918;2023-04-15T08:08:40;7.20;99.90
7014;DHT22;3547;50.774;12.918;2023-04-15T08:11:06;7.10;99.90
7014;DHT22;3547;50.774;12.918;2023-04-15T08:13:32;7.20;1.00
7014;DHT22;3547;50.774;12.918;2023-04-15T08:16:19;7.20;1.00
7014;DHT22;3547;50.774;12.918;2023-04-15T08:18:46;7.20;1.00
7014;DHT22;3547;50.774;12.918;2023-04-15T08:21:15;7.30;1.00
7014;DHT22;3547;50.774;12.918;2023-04-15T08:29:54;7.60;1.00
7014;DHT22;3547;50.774;12.918;2023-04-15T08:35:00;7.70;99.90
7014;DHT22;3547;50.774;12.918;2023-04-15T08:37:27;7.70;99.90
7014;DHT22;3547;50.774;12.918;2023-04-15T08:39:56;7.80;99.90
7014;DHT22;3547;50.774;12.918;2023-04-15T08:42:47;7.90;99.90
7014;DHT22;3547;50.774;12.918;2023-04-15T08:45:14;8.00;99.90
7014;DHT22;3547;50.774;12.918;2023-04-15T08:47:42;7.90;91.80
7014;DHT22;3547;50.774;12.918;2023-04-15T08:50:09;7.60;80.60
7014;DHT22;3547;50.774;12.918;2023-04-15T08:52:36;7.60;96.90
7014;DHT22;3547;50.774;12.918;2023-04-15T08:55:03;7.90;99.90
7014;DHT22;3547;50.774;12.918;2023-04-15T08:57:32;8.10;99.90
7014;DHT22;3547;50.774;12.918;2023-04-15T09:00:00;8.10;94.10
7014;DHT22;3547;50.774;12.918;2023-04-15T09:02:28;8.20;99.90
7014;DHT22;3547;50.774;12.918;2023-04-15T09:04:54;8.10;77.60
7014;DHT22;3547;50.774;12.918;2023-04-15T09:07:21;8.20;99.90
7014;DHT22;3547;50.774;12.918;2023-04-15T09:09:47;8.20;68.40
7014;DHT22;3547;50.774;12.918;2023-04-15T09:12:14;8.30;69.70
7014;DHT22;3547;50.774;12.918;2023-04-15T09:17:20;8.40;99.90
7014;DHT22;3547;50.774;12.918;2023-04-15T09:19:47;8.40;39.50
7014;DHT22;3547;50.774;12.918;2023-04-15T09:24:50;8.40;57.00
7014;DHT22;3547;50.774;12.918;2023-04-15T09:27:50;8.40;37.40
7014;DHT22;3547;50.774;12.918;2023-04-15T09:47:31;8.60;17.40
7014;DHT22;3547;50.774;12.918;2023-04-15T09:50:01;8.60;1.00
7014;DHT22;3547;50.774;12.918;2023-04-15T09:52:27;8.50;1.00
7014;DHT22;3547;50.774;12.918;2023-04-15T09:57:34;8.70;35.60
7014;DHT22;3547;50.774;12.918;2023-04-15T10:00:03;8.50;15.50
7014;DHT22;3547;50.774;12.918;2023-04-15T10:02:31;8.70;17.80
7014;DHT22;3547;50.774;12.918;2023-04-15T10:05:03;8.70;1.00
7014;DHT22;3547;50.774;12.918;2023-04-15T10:07:39;8.70;1.00
7014;DHT22;3547;50.774;12.918;2023-04-15T10:10:08;8.80;1.00
7014;DHT22;3547;50.774;12.918;2023-04-15T10:12:40;8.90;15.00
7014;DHT22;3547;50.774;12.918;2023-04-15T10:18:39;9.10;1.00
7014;DHT22;3547;50.774;12.918;2023-04-15T10:21:06;8.70;1.00
7014;DHT22;3547;50.774;12.918;2023-04-15T10:23:38;8.70;1.00
7014;DHT22;3547;50.774;12.918;2023-04-15T10:28:40;8.90;1.00
7014;DHT22;3547;50.774;12.918;2023-04-15T10:31:07;9.10;1.00
7014;DHT22;3547;50.774;12.918;2023-04-15T10:33:54;9.00;8.00
7014;DHT22;3547;50.774;12.918;2023-04-15T10:36:21;9.00;1.00
7014;DHT22;3547;50.774;12.918;2023-04-15T10:50:00;9.10;3.00
7014;DHT22;3547;50.774;12.918;2023-04-15T10:52:27;9.10;2.10
7014;DHT22;3547;50.774;12.918;2023-04-15T10:55:17;9.30;1.00
7014;DHT22;3547;50.774;12.918;2023-04-15T10:57:44;8.90;1.00
7014;DHT22;3547;50.774;12.918;2023-04-15T11:00:14;8.70;1.00
7014;DHT22;3547;50.774;12.918;2023-04-15T11:03:04;8.90;4.30
7014;DHT22;3547;50.774;12.918;2023-04-15T11:05:58;9.00;1.00
7014;DHT22;3547;50.774;12.918;2023-04-15T11:11:19;9.00;1.00
7014;DHT22;3547;50.774;12.918;2023-04-15T11:13:55;9.10;1.00
7014;DHT22;3547;50.774;12.918;2023-04-15T11:16:22;9.20;1.00
7014;DHT22;3547;50.774;12.918;2023-04-15T11:18:55;9.20;1.00
7014;DHT22;3547;50.774;12.918;2023-04-15T11:21:31;9.40;1.00
7014;DHT22;3547;50.774;12.918;2023-04-15T11:23:59;9.40;1.00
7014;DHT22;3547;50.774;12.918;2023-04-15T11:26:25;9.50;1.00
7014;DHT22;3547;50.774;12.918;2023-04-15T11:43:39;9.20;1.00
7014;DHT22;3547;50.774;12.918;2023-04-15T11:46:05;9.20;1.00
7014;DHT22;3547;50.774;12.918;2023-04-15T11:48:35;9.30;1.00
7014;DHT22;3547;50.774;12.918;2023-04-15T11:51:05;9.10;1.00
7014;DHT22;3547;50.774;12.918;2023-04-15T11:53:46;9.10;1.00
7014;DHT22;3547;50.774;12.918;2023-04-15T11:56:31;9.20;1.00
7014;DHT22;3547;50.774;12.918;2023-04-15T11:58:58;9.50;1.00
7014;DHT22;3547;50.774;12.918;2023-04-15T12:06:36;9.90;1.00
7014;DHT22;3547;50.774;12.918;2023-04-15T12:09:13;9.80;1.00
7014;DHT22;3547;50.774;12.918;2023-04-15T12:12:03;9.60;1.00
7014;DHT22;3547;50.774;12.918;2023-04-15T12:14:31;9.60;1.00
7014;DHT22;3547;50.774;12.918;2023-04-15T12:17:05;9.60;1.00
7014;DHT22;3547;50.774;12.918;2023-04-15T12:22:05;9.50;1.00
7014;DHT22;3547;50.774;12.918;2023-04-15T12:27:18;9.60;1.00
7014;DHT22;3547;50.774;12.918;2023-04-15T12:29:44;9.90;1.00
7014;DHT22;3547;50.774;12.918;2023-04-15T12:32:14;10.00;1.00
7014;DHT22;3547;50.774;12.918;2023-04-15T12:34:52;10.00;1.00
7014;DHT22;3547;50.774;12.918;2023-04-15T12:40:47;9.70;1.00
7014;DHT22;3547;50.774;12.918;2023-04-15T12:43:13;9.40;1.00
7014;DHT22;3547;50.774;12.918;2023-04-15T12:45:40;9.40;1.00
7014;DHT22;3547;50.774;12.918;2023-04-15T12:48:14;9.30;1.00
7014;DHT22;3547;50.774;12.918;2023-04-15T12:50:51;9.20;1.00
7014;DHT22;3547;50.774;12.918;2023-04-15T12:53:19;9.30;1.00
7014;DHT22;3547;50.774;12.918;2023-04-15T12:55:49;9.40;1.00
7014;DHT22;3547;50.774;12.918;2023-04-15T12:58:17;9.40;1.00
7014;DHT22;3547;50.774;12.918;2023-04-15T13:00:44;9.30;1.00
7014;DHT22;3547;50.774;12.918;2023-04-15T13:03:14;9.20;1.00
7014;DHT22;3547;50.774;12.918;2023-04-15T13:05:42;9.40;1.00
7014;DHT22;3547;50.774;12.918;2023-04-15T13:10:55;9.40;1.00
7014;DHT22;3547;50.774;12.918;2023-04-15T13:16:31;9.50;1.00
7014;DHT22;3547;50.774;12.918;2023-04-15T13:19:04;9.40;1.00
7014;DHT22;3547;50.774;12.918;2023-04-15T13:21:31;9.20;1.00
7014;DHT22;3547;50.774;12.918;2023-04-15T13:24:00;9.20;1.00
7014;DHT22;3547;50.774;12.918;2023-04-15T13:26:27;9.30;1.00
7014;DHT22;3547;50.774;12.918;2023-04-15T13:28:54;9.40;1.00
7014;DHT22;3547;50.774;12.918;2023-04-15T13:31:20;9.30;1.00
7014;DHT22;3547;50.774;12.918;2023-04-15T13:33:46;9.20;1.00
7014;DHT22;3547;50.774;12.918;2023-04-15T13:36:12;9.30;1.00
7014;DHT22;3547;50.774;12.918;2023-04-15T13:38:38;9.20;1.00
7014;DHT22;3547;50.774;12.918;2023-04-15T13:48:55;9.10;1.00
7014;DHT22;3547;50.774;12.918;2023-04-15T13:51:25;9.10;1.00
7014;DHT22;3547;50.774;12.918;2023-04-15T13:53:51;9.10;1.00
7014;DHT22;3547;50.774;12.918;2023-04-15T13:56:18;9.30;1.00
7014;DHT22;3547;50.774;12.918;2023-04-15T13:58:44;9.40;1.00
7014;DHT22;3547;50.774;12.918;2023-04-15T14:01:11;9.60;1.00
7014;DHT22;3547;50.774;12.918;2023-04-15T14:03:41;9.50;1.00
7014;DHT22;3547;50.774;12.918;2023-04-15T14:06:29;9.40;1.00
7014;DHT22;3547;50.774;12.918;2023-04-15T14:16:53;9.30;1.00
7014;DHT22;3547;50.774;12.918;2023-04-15T14:19:19;9.20;1.00
7014;DHT22;3547;50.774;12.918;2023-04-15T14:35:04;9.90;1.00
7014;DHT22;3547;50.774;12.918;2023-04-15T14:37:30;10.00;1.00
7014;DHT22;3547;50.774;12.918;2023-04-15T14:39:56;9.90;1.00
7014;DHT22;3547;50.774;12.918;2023-04-15T14:42:22;9.90;1.00
7014;DHT22;3547;50.774;12.918;2023-04-15T15:43:31;10.40;1.00
7014;DHT22;3547;50.774;12.918;2023-04-15T16:12:16;10.10;1.00
7014;DHT22;3547;50.774;12.918;2023-04-15T16:14:42;10.20;1.00
7014;DHT22;3547;50.774;12.918;2023-04-15T16:17:20;10.10;1.00
7014;DHT22;3547;50.774;12.918;2023-04-15T16:19:51;10.10;1.00
7014;DHT22;3547;50.774;12.918;2023-04-15T16:22:17;10.30;1.00
7014;DHT22;3547;50.774;12.918;2023-04-15T16:27:26;10.20;1.00
7014;DHT22;3547;50.774;12.918;2023-04-15T16:29:58;10.10;1.00
7014;DHT22;3547;50.774;12.918;2023-04-15T16:32:25;10.30;1.00
7014;DHT22;3547;50.774;12.918;2023-04-15T16:34:52;10.50;1.00
7014;DHT22;3547;50.774;12.918;2023-04-15T16:37:19;10.30;1.00
7014;DHT22;3547;50.774;12.918;2023-04-15T16:39:45;10.30;1.00
7014;DHT22;3547;50.774;12.918;2023-04-15T16:42:12;10.00;1.00
7014;DHT22;3547;50.774;12.918;2023-04-15T16:44:38;9.90;1.00
7014;DHT22;3547;50.774;12.918;2023-04-15T16:49:59;9.90;1.00
7014;DHT22;3547;50.774;12.918;2023-04-15T16:52:25;9.90;1.00
7014;DHT22;3547;50.774;12.918;2023-04-15T16:54:52;9.90;1.00
7014;DHT22;3547;50.774;12.918;2023-04-15T16:57:18;9.80;1.00
7014;DHT22;3547;50.774;12.918;2023-04-15T16:59:45;9.80;1.00
7014;DHT22;3547;50.774;12.918;2023-04-15T17:02:17;9.80;1.00
7014;DHT22;3547;50.774;12.918;2023-04-15T17:04:44;9.80;1.00
7014;DHT22;3547;50.774;12.918;2023-04-15T17:07:11;9.80;1.00
7014;DHT22;3547;50.774;12.918;2023-04-15T17:09:38;9.70;1.00
7014;DHT22;3547;50.774;12.918;2023-04-15T17:12:08;9.70;1.00
7014;DHT22;3547;50.774;12.918;2023-04-15T17:14:34;9.70;1.00
7014;DHT22;3547;50.774;12.918;2023-04-15T17:17:01;9.50;1.00
7014;DHT22;3547;50.774;12.918;2023-04-15T17:19:27;9.50;1.00
7014;DHT22;3547;50.774;12.918;2023-04-15T17:21:54;9.50;1.00
7014;DHT22;3547;50.774;12.918;2023-04-15T17:24:23;9.50;1.00
7014;DHT22;3547;50.774;12.918;2023-04-15T17:26:52;9.40;1.00
7014;DHT22;3547;50.774;12.918;2023-04-15T17:34:30;9.20;1.00
7014;DHT22;3547;50.774;12.918;2023-04-15T17:39:33;9.20;1.00
7014;DHT22;3547;50.774;12.918;2023-04-15T17:44:35;9.00;1.00
7014;DHT22;3547;50.774;12.918;2023-04-15T17:47:01;9.00;1.00
7014;DHT22;3547;50.774;12.918;2023-04-15T17:49:44;9.00;1.00
7014;DHT22;3547;50.774;12.918;2023-04-15T17:52:13;8.90;1.00
7014;DHT22;3547;50.774;12.918;2023-04-15T17:54:39;9.00;1.00
7014;DHT22;3547;50.774;12.918;2023-04-15T17:57:11;9.00;1.00
7014;DHT22;3547;50.774;12.918;2023-04-15T17:59:44;8.90;1.00
7014;DHT22;3547;50.774;12.918;2023-04-15T18:05:04;8.80;1.00
7014;DHT22;3547;50.774;12.918;2023-04-15T18:07:30;8.80;1.00
7014;DHT22;3547;50.774;12.918;2023-04-15T18:09:57;8.80;1.00
7014;DHT22;3547;50.774;12.918;2023-04-15T18:12:23;8.70;1.00
7014;DHT22;3547;50.774;12.918;2023-04-15T18:14:49;8.70;1.00
7014;DHT22;3547;50.774;12.918;2023-04-15T18:17:15;8.70;1.00
7014;DHT22;3547;50.774;12.918;2023-04-15T18:19:41;8.80;1.00
7014;DHT22;3547;50.774;12.918;2023-04-15T18:22:08;8.70;1.00
7014;DHT22;3547;50.774;12.918;2023-04-15T18:24:34;8.70;1.00
7014;DHT22;3547;50.774;12.918;2023-04-15T18:27:01;8.70;1.00
7014;DHT22;3547;50.774;12.918;2023-04-15T18:29:27;8.70;1.00
7014;DHT22;3547;50.774;12.918;2023-04-15T18:31:53;8.70;1.00
7014;DHT22;3547;50.774;12.918;2023-04-15T18:34:20;8.60;1.00
7014;DHT22;3547;50.774;12.918;2023-04-15T18:36:46;8.70;1.00
7014;DHT22;3547;50.774;12.918;2023-04-15T18:39:12;8.70;1.00
7014;DHT22;3547;50.774;12.918;2023-04-15T18:41:38;8.80;1.00
7014;DHT22;3547;50.774;12.918;2023-04-15T18:44:05;8.80;1.00
7014;DHT22;3547;50.774;12.918;2023-04-15T18:46:32;8.80;1.00
7014;DHT22;3547;50.774;12.918;2023-04-15T18:48:59;8.80;1.00
7014;DHT22;3547;50.774;12.918;2023-04-15T18:51:25;8.80;1.00
7014;DHT22;3547;50.774;12.918;2023-04-15T18:53:52;8.80;1.00
7014;DHT22;3547;50.774;12.918;2023-04-15T18:59:41;8.60;1.00
7014;DHT22;3547;50.774;12.918;2023-04-15T19:02:08;8.50;1.00
7014;DHT22;3547;50.774;12.918;2023-04-15T19:04:34;8.50;1.00
7014;DHT22;3547;50.774;12.918;2023-04-15T19:07:01;8.60;1.00
7014;DHT22;3547;50.774;12.918;2023-04-15T19:09:28;8.60;1.00
7014;DHT22;3547;50.774;12.918;2023-04-15T19:11:54;8.60;1.00
7014;DHT22;3547;50.774;12.918;2023-04-15T19:14:24;8.60;1.00
7014;DHT22;3547;50.774;12.918;2023-04-15T19:16:50;8.60;1.00
7014;DHT22;3547;50.774;12.918;2023-04-15T19:19:17;8.60;1.00
7014;DHT22;3547;50.774;12.918;2023-04-15T19:21:44;8.60;1.00
7014;DHT22;3547;50.774;12.918;2023-04-15T19:24:12;8.50;1.00
7014;DHT22;3547;50.774;12.918;2023-04-15T19:26:39;8.50;1.00
7014;DHT22;3547;50.774;12.918;2023-04-15T19:29:05;8.40;1.00
7014;DHT22;3547;50.774;12.918;2023-04-15T19:31:31;8.40;1.00
7014;DHT22;3547;50.774;12.918;2023-04-15T19:33:57;8.40;1.00
7014;DHT22;3547;50.774;12.918;2023-04-15T19:36:24;8.30;1.00
7014;DHT22;3547;50.774;12.918;2023-04-15T19:38:50;8.30;1.00
7014;DHT22;3547;50.774;12.918;2023-04-15T19:41:17;8.30;1.00
7014;DHT22;3547;50.774;12.918;2023-04-15T19:43:43;8.30;1.00
7014;DHT22;3547;50.774;12.918;2023-04-15T19:49:31;8.10;1.00
7014;DHT22;3547;50.774;12.918;2023-04-15T19:51:58;8.20;1.00
7014;DHT22;3547;50.774;12.918;2023-04-15T19:54:24;8.10;1.00
7014;DHT22;3547;50.774;12.918;2023-04-15T19:56:51;8.10;1.00
7014;DHT22;3547;50.774;12.918;2023-04-15T19:59:17;8.20;1.00
7014;DHT22;3547;50.774;12.918;2023-04-15T20:01:43;8.10;1.00
7014;DHT22;3547;50.774;12.918;2023-04-15T20:04:09;8.20;1.00
7014;DHT22;3547;50.774;12.918;2023-04-15T20:06:36;8.20;1.00